createdAt,value
2018-09-01T00:01:28.801Z,0
2018-09-01T00:06:29.548Z,0
2018-09-01T00:11:29.134Z,0
2018-09-01T00:16:28.475Z,0
2018-09-01T00:21:28.812Z,0
2018-09-01T00:26:29.202Z,0
2018-09-01T00:31:28.482Z,0
2018-09-01T00:36:28.916Z,0
2018-09-01T00:41:29.269Z,0
2018-09-01T00:46:28.586Z,0
2018-09-01T00:51:29.000Z,0
2018-09-01T00:56:28.899Z,0
2018-09-01T01:01:29.266Z,0
2018-09-01T01:06:28.604Z,0
2018-09-01T01:11:28.587Z,0
2018-09-01T01:16:29.106Z,0
2018-09-01T01:21:29.586Z,0
2018-09-01T01:26:28.885Z,0
2018-09-01T01:31:29.251Z,0
2018-09-01T01:36:28.774Z,0
2018-09-01T01:41:29.188Z,0
2018-09-01T01:46:29.546Z,0
2018-09-01T01:51:29.029Z,0
2018-09-01T01:56:29.328Z,0
2018-09-01T02:01:28.752Z,0
2018-09-01T02:06:29.385Z,0
2018-09-01T02:11:28.826Z,0
2018-09-01T02:16:29.251Z,0
2018-09-01T02:21:28.715Z,0
2018-09-01T02:26:29.044Z,0
2018-09-01T02:31:29.392Z,0
2018-09-01T02:36:28.714Z,0
2018-09-01T02:41:29.208Z,0
2018-09-01T02:46:29.465Z,0
2018-09-01T02:51:28.821Z,0
2018-09-01T02:56:29.186Z,0
2018-09-01T03:01:29.506Z,0
2018-09-01T03:06:28.867Z,0
2018-09-01T03:11:29.657Z,0
2018-09-01T03:16:28.855Z,0
2018-09-01T03:21:29.329Z,0
2018-09-01T03:26:29.081Z,0
2018-09-01T03:31:29.461Z,0
2018-09-01T03:36:28.870Z,0
2018-09-01T03:41:29.320Z,0
2018-09-01T03:46:29.673Z,0
2018-09-01T03:51:29.124Z,0
2018-09-01T03:56:29.037Z,0
2018-09-01T04:01:29.458Z,0
2018-09-01T04:06:28.976Z,0
2018-09-01T04:11:28.784Z,0
2018-09-01T04:16:29.232Z,0
2018-09-01T04:21:29.616Z,0
2018-09-01T04:26:28.978Z,0.2
2018-09-01T04:31:29.366Z,0.2
2018-09-01T04:36:29.153Z,0
2018-09-01T04:41:29.492Z,0
2018-09-01T04:46:28.832Z,0
2018-09-01T04:51:29.203Z,0
2018-09-01T04:56:29.550Z,0.1
2018-09-01T05:01:29.025Z,0.1
2018-09-01T05:06:29.689Z,0.4
2018-09-01T05:11:28.928Z,0.4
2018-09-01T05:16:29.258Z,0
2018-09-01T05:21:29.338Z,0
2018-09-01T05:26:29.653Z,0.4
2018-09-01T05:31:28.982Z,0.4
2018-09-01T05:36:29.395Z,0
2018-09-01T05:41:29.819Z,0
2018-09-01T05:46:29.142Z,0
2018-09-01T05:51:29.392Z,0
2018-09-01T05:56:29.779Z,0.4
2018-09-01T06:01:29.365Z,0.4
2018-09-01T06:06:29.065Z,0.4
2018-09-01T06:11:29.100Z,0.4
2018-09-01T06:16:29.856Z,0.4
2018-09-01T06:21:29.006Z,0.4
2018-09-01T06:26:29.328Z,0.3
2018-09-01T06:31:29.672Z,0.3
2018-09-01T06:36:29.010Z,0.4
2018-09-01T06:41:29.374Z,0.4
2018-09-01T06:46:29.677Z,0.3
2018-09-01T06:51:29.186Z,0.3
2018-09-01T06:56:29.527Z,0
2018-09-01T07:01:29.794Z,0
2018-09-01T07:06:29.072Z,0
2018-09-01T07:11:29.531Z,0
2018-09-01T07:16:29.944Z,0
2018-09-01T07:21:29.334Z,0
2018-09-01T07:26:29.768Z,0.4
2018-09-01T07:31:29.441Z,0.4
2018-09-01T07:36:29.270Z,0.1
2018-09-01T07:41:29.738Z,0.1
2018-09-01T07:46:29.151Z,0.4
2018-09-01T07:51:29.581Z,0.4
2018-09-01T07:56:30.041Z,0.4
2018-09-01T08:01:29.503Z,0.4
2018-09-01T08:06:29.811Z,0.4
2018-09-01T08:11:29.479Z,0.4
2018-09-01T08:16:29.833Z,0.4
2018-09-01T08:21:29.243Z,0.4
2018-09-01T08:26:29.567Z,0.7
2018-09-01T08:31:29.898Z,0.7
2018-09-01T08:36:29.274Z,0.2
2018-09-01T08:41:29.453Z,0.2
2018-09-01T08:46:29.809Z,0.4
2018-09-01T08:51:29.209Z,0.4
2018-09-01T08:56:29.643Z,0.9
2018-09-01T09:01:29.314Z,0.9
2018-09-01T09:06:29.715Z,0.4
2018-09-01T09:11:29.330Z,0.4
2018-09-01T09:16:29.782Z,0.6
2018-09-01T09:21:29.229Z,0.6
2018-09-01T09:26:29.640Z,0.9
2018-09-01T09:31:30.066Z,0.9
2018-09-01T09:36:29.627Z,0.5
2018-09-01T09:41:30.053Z,0.5
2018-09-01T09:46:29.480Z,0.4
2018-09-01T09:51:29.933Z,0.4
2018-09-01T09:56:29.266Z,0.9
2018-09-01T10:01:29.688Z,0.9
2018-09-01T10:06:30.132Z,0.4
2018-09-01T10:11:29.851Z,0.4
2018-09-01T10:16:29.157Z,0.4
2018-09-01T10:21:29.552Z,0.4
2018-09-01T10:26:29.875Z,0.8
2018-09-01T10:31:29.324Z,0.8
2018-09-01T10:36:29.784Z,0.5
2018-09-01T10:41:29.301Z,0.5
2018-09-01T10:46:29.662Z,1.3
2018-09-01T10:51:30.134Z,1.3
2018-09-01T10:56:29.439Z,0.9
2018-09-01T11:01:29.838Z,0.9
2018-09-01T11:06:29.195Z,0.9
2018-09-01T11:11:29.598Z,0.9
2018-09-01T11:16:29.923Z,0.9
2018-09-01T11:21:29.339Z,0.9
2018-09-01T11:26:29.651Z,0.4
2018-09-01T11:31:29.946Z,0.4
2018-09-01T11:36:29.329Z,0.9
2018-09-01T11:41:29.739Z,0.9
2018-09-01T11:46:30.117Z,0.4
2018-09-01T11:51:29.453Z,0.4
2018-09-01T11:56:29.892Z,1.5
2018-09-01T12:01:29.258Z,1.5
2018-09-01T12:06:29.701Z,1.2
2018-09-01T12:11:29.438Z,1.2
2018-09-01T12:16:29.773Z,0.7
2018-09-01T12:21:30.134Z,0.7
2018-09-01T12:26:29.483Z,1.8
2018-09-01T12:31:29.869Z,1.8
2018-09-01T12:36:29.662Z,1.2
2018-09-01T12:41:30.033Z,1.2
2018-09-01T12:46:29.279Z,1.4
2018-09-01T12:51:29.634Z,1.4
2018-09-01T12:56:29.987Z,2.2
2018-09-01T13:01:30.337Z,2.2
2018-09-01T13:06:29.883Z,0.9
2018-09-01T13:11:30.747Z,0.9
2018-09-01T13:16:30.061Z,0.4
2018-09-01T13:21:29.505Z,0.4
2018-09-01T13:26:29.840Z,1
2018-09-01T13:31:30.147Z,1
2018-09-01T13:36:29.641Z,0.9
2018-09-01T13:41:30.041Z,0.9
2018-09-01T13:46:29.343Z,0.6
2018-09-01T13:51:29.733Z,0.6
2018-09-01T13:56:30.077Z,1.3
2018-09-01T14:01:29.725Z,1.3
2018-09-01T14:06:30.350Z,1.3
2018-09-01T14:11:29.723Z,1.3
2018-09-01T14:16:30.378Z,1.7
2018-09-01T14:21:29.819Z,1.7
2018-09-01T14:26:30.189Z,0.9
2018-09-01T14:31:29.491Z,0.9
2018-09-01T14:36:29.808Z,1
2018-09-01T14:41:30.239Z,1
2018-09-01T14:46:29.641Z,1.3
2018-09-01T14:51:30.059Z,1.3
2018-09-01T14:56:29.486Z,0.6
2018-09-01T15:01:29.871Z,0.6
2018-09-01T15:06:30.372Z,0.9
2018-09-01T15:11:30.022Z,0.9
2018-09-01T15:16:30.152Z,0.9
2018-09-01T15:21:29.466Z,0.9
2018-09-01T15:26:29.914Z,0.4
2018-09-01T15:31:30.284Z,0.4
2018-09-01T15:36:29.623Z,0.8
2018-09-01T15:41:30.038Z,0.8
2018-09-01T15:46:30.458Z,1.3
2018-09-01T15:51:29.895Z,1.3
2018-09-01T15:56:30.313Z,0.9
2018-09-01T16:01:29.726Z,0.9
2018-09-01T16:06:30.093Z,0.4
2018-09-01T16:11:30.424Z,0.4
2018-09-01T16:16:30.331Z,0.9
2018-09-01T16:21:29.792Z,0.9
2018-09-01T16:26:30.133Z,0.7
2018-09-01T16:31:30.480Z,0.7
2018-09-01T16:36:29.829Z,0.9
2018-09-01T16:41:30.236Z,0.9
2018-09-01T16:46:30.549Z,1.2
2018-09-01T16:51:29.888Z,1.2
2018-09-01T16:56:30.210Z,1.3
2018-09-01T17:01:30.509Z,1.3
2018-09-01T17:06:29.859Z,1
2018-09-01T17:11:30.257Z,1
2018-09-01T17:16:29.620Z,0.4
2018-09-01T17:21:29.978Z,0.4
2018-09-01T17:26:30.333Z,0.4
2018-09-01T17:31:29.782Z,0.4
2018-09-01T17:36:30.078Z,0.2
2018-09-01T17:41:30.553Z,0.2
2018-09-01T17:46:29.963Z,0
2018-09-01T17:51:30.307Z,0
2018-09-01T17:56:29.971Z,0
2018-09-01T18:01:30.355Z,0
2018-09-01T18:06:29.735Z,0
2018-09-01T18:11:30.080Z,0
2018-09-01T18:16:30.296Z,0
2018-09-01T18:21:30.649Z,0
2018-09-01T18:26:29.946Z,0
2018-09-01T18:31:30.331Z,0
2018-09-01T18:36:29.816Z,0.4
2018-09-01T18:41:30.170Z,0.4
2018-09-01T18:46:29.913Z,0.4
2018-09-01T18:51:30.264Z,0.4
2018-09-01T18:56:29.736Z,0.2
2018-09-01T19:01:30.106Z,0.2
2018-09-01T19:06:29.938Z,0.4
2018-09-01T19:11:30.595Z,0.4
2018-09-01T19:16:29.821Z,0
2018-09-01T19:21:30.187Z,0
2018-09-01T19:26:30.139Z,0
2018-09-01T19:31:30.466Z,0
2018-09-01T19:36:30.784Z,0
2018-09-01T19:41:30.135Z,0
2018-09-01T19:46:30.363Z,0
2018-09-01T19:51:30.730Z,0
2018-09-01T19:56:30.212Z,0
2018-09-01T20:01:30.711Z,0
2018-09-01T20:06:30.285Z,0
2018-09-01T20:11:29.964Z,0
2018-09-01T20:16:30.521Z,0
2018-09-01T20:21:29.887Z,0
2018-09-01T20:26:30.221Z,0
2018-09-01T20:31:30.628Z,0
2018-09-01T20:36:30.088Z,0
2018-09-01T20:41:30.339Z,0
2018-09-01T20:46:30.685Z,0
2018-09-01T20:51:30.092Z,0
2018-09-01T20:56:30.545Z,0
2018-09-01T21:01:29.923Z,0
2018-09-01T21:06:30.426Z,0
2018-09-01T21:11:29.907Z,0
2018-09-01T21:16:30.811Z,0
2018-09-01T21:21:30.284Z,0
2018-09-01T21:26:30.778Z,0
2018-09-01T21:31:30.161Z,0
2018-09-01T21:36:30.667Z,0
2018-09-01T21:41:30.195Z,0
2018-09-01T21:46:30.526Z,0
2018-09-01T21:51:30.958Z,0
2018-09-01T21:56:30.319Z,0
2018-09-01T22:01:29.971Z,0
2018-09-01T22:06:30.859Z,0
2018-09-01T22:11:30.256Z,0
2018-09-01T22:16:30.281Z,0
2018-09-01T22:21:30.686Z,0
2018-09-01T22:26:30.000Z,0
2018-09-01T22:31:30.428Z,0
2018-09-01T22:36:30.897Z,0
2018-09-01T22:41:30.166Z,0
2018-09-01T22:46:30.562Z,0
2018-09-01T22:51:31.031Z,0
2018-09-01T22:56:30.520Z,0
2018-09-01T23:01:30.885Z,0
2018-09-01T23:06:30.265Z,0
2018-09-01T23:11:30.611Z,0
2018-09-01T23:16:30.886Z,0
2018-09-01T23:21:30.256Z,0
2018-09-01T23:26:30.576Z,0
2018-09-01T23:31:30.988Z,0
2018-09-01T23:36:30.519Z,0
2018-09-01T23:41:30.864Z,0
2018-09-01T23:46:30.283Z,0
2018-09-01T23:51:30.800Z,0
2018-09-01T23:56:30.215Z,0
